Portada
METAR-TAF:

METAR-TAF

Aeroports :

Base aèria

Anápolis, Goiás, Brasil

latitud: 16-14S, longitud: 048-58W, altitud: 1137 m

Observació

L'informe es va fer fa 46 minuts, a les 23:00 UTC
Vent calma
Temperatura 20°C
Humitat 46%
Pressió 1018 hPa
Visibilitat 10 km o més
sense núvols per sota de 1500 mi sense presència de cumulonimbus.

METAR: SBAN 122300Z 00000KT CAVOK 20/08 Q1018

Hora: 20:46 (23:46 UTC)

Pronòstic

L'informe es va fer fa 8 hores i 46 minuts, a les 15:00 UTC
Pronòstic vàlid del 12 a les 18 UTC al 13 a les 06 UTC
Vent 15 kt del Nord-Est
Visibilitat 10 km o més
Núvols disperses a una alçada de 4500 ft
Evolucionant progressivament
l' 12 a les 20 UTC al 12 a les 22 UTC
Vent 5 kt del Est
Visibilitat 10 km o més
sense núvols per sota de 1500 mi sense presència de cumulonimbus.

TAF: SBAN 121500Z 1218/1306 04015KT 9999 SCT045 TX28/1218Z TN18/1305Z BECMG 1220/1222 10005KT CAVOK RMK PEH

Observacions i pronòstics meteorològics de més de 4000 aeroports (METAR i TAF).

Les estacions disponibles són els punts grocs i vermells al mapa.

Posi el ratolí al punt desitjat per veure el nom de l'estació.

Feu clic per veure les observacions i els pronòstics meteorològics.

Per canviar el mapa: feu clic els botons verds amb una creu de color negre per apropar; al botó verd amb un guió per allunyar la imatge; o en les fletxes verdes per a mapes adjacents.


METAR-TAF: